sensor_id;sensor_type;location;lat;lon;timestamp;temperature;humidity
4757;DHT22;2392;52.578;13.426;2023-05-10T00:00:47;13.80;75.80
4757;DHT22;2392;52.578;13.426;2023-05-10T00:03:14;13.80;76.10
4757;DHT22;2392;52.578;13.426;2023-05-10T00:05:42;13.70;76.40
4757;DHT22;2392;52.578;13.426;2023-05-10T00:08:09;13.70;76.30
4757;DHT22;2392;52.578;13.426;2023-05-10T00:10:36;13.70;76.60
4757;DHT22;2392;52.578;13.426;2023-05-10T00:13:03;13.60;77.30
4757;DHT22;2392;52.578;13.426;2023-05-10T00:15:30;13.60;76.80
4757;DHT22;2392;52.578;13.426;2023-05-10T00:17:57;13.60;77.00
4757;DHT22;2392;52.578;13.426;2023-05-10T00:20:24;13.60;77.00
4757;DHT22;2392;52.578;13.426;2023-05-10T00:22:53;13.50;77.20
4757;DHT22;2392;52.578;13.426;2023-05-10T00:25:20;13.50;77.30
4757;DHT22;2392;52.578;13.426;2023-05-10T00:27:47;13.50;77.50
4757;DHT22;2392;52.578;13.426;2023-05-10T00:30:15;13.40;77.60
4757;DHT22;2392;52.578;13.426;2023-05-10T00:32:42;13.30;77.60
4757;DHT22;2392;52.578;13.426;2023-05-10T00:35:10;13.30;78.00
4757;DHT22;2392;52.578;13.426;2023-05-10T00:37:36;13.20;78.20
4757;DHT22;2392;52.578;13.426;2023-05-10T00:40:06;13.10;78.30
4757;DHT22;2392;52.578;13.426;2023-05-10T00:42:33;13.10;78.70
4757;DHT22;2392;52.578;13.426;2023-05-10T00:45:00;13.10;78.90
4757;DHT22;2392;52.578;13.426;2023-05-10T00:47:28;13.00;79.00
4757;DHT22;2392;52.578;13.426;2023-05-10T00:49:55;13.00;79.10
4757;DHT22;2392;52.578;13.426;2023-05-10T00:52:23;13.00;79.30
4757;DHT22;2392;52.578;13.426;2023-05-10T00:54:51;13.00;79.60
4757;DHT22;2392;52.578;13.426;2023-05-10T00:57:20;12.90;80.70
4757;DHT22;2392;52.578;13.426;2023-05-10T00:59:48;12.90;80.00
4757;DHT22;2392;52.578;13.426;2023-05-10T01:02:15;12.80;80.20
4757;DHT22;2392;52.578;13.426;2023-05-10T01:04:43;12.80;80.30
4757;DHT22;2392;52.578;13.426;2023-05-10T01:07:10;12.80;80.60
4757;DHT22;2392;52.578;13.426;2023-05-10T01:09:37;12.80;80.80
4757;DHT22;2392;52.578;13.426;2023-05-10T01:12:05;12.80;81.00
4757;DHT22;2392;52.578;13.426;2023-05-10T01:14:34;12.70;81.10
4757;DHT22;2392;52.578;13.426;2023-05-10T01:17:02;12.70;81.40
4757;DHT22;2392;52.578;13.426;2023-05-10T01:19:30;12.60;82.60
4757;DHT22;2392;52.578;13.426;2023-05-10T01:22:06;12.60;81.90
4757;DHT22;2392;52.578;13.426;2023-05-10T01:27:55;12.60;82.10
4757;DHT22;2392;52.578;13.426;2023-05-10T01:30:55;12.60;82.40
4757;DHT22;2392;52.578;13.426;2023-05-10T01:33:35;12.60;82.50
4757;DHT22;2392;52.578;13.426;2023-05-10T01:36:12;12.60;82.40
4757;DHT22;2392;52.578;13.426;2023-05-10T01:38:45;12.60;82.40
4757;DHT22;2392;52.578;13.426;2023-05-10T01:41:19;12.60;82.70
4757;DHT22;2392;52.578;13.426;2023-05-10T01:43:55;12.50;82.90
4757;DHT22;2392;52.578;13.426;2023-05-10T01:46:28;12.50;83.10
4757;DHT22;2392;52.578;13.426;2023-05-10T01:49:00;12.40;83.10
4757;DHT22;2392;52.578;13.426;2023-05-10T01:51:36;12.40;83.50
4757;DHT22;2392;52.578;13.426;2023-05-10T01:54:06;12.30;83.80
4757;DHT22;2392;52.578;13.426;2023-05-10T01:56:35;12.30;83.60
4757;DHT22;2392;52.578;13.426;2023-05-10T01:59:08;12.30;83.90
4757;DHT22;2392;52.578;13.426;2023-05-10T02:01:36;12.30;84.70
4757;DHT22;2392;52.578;13.426;2023-05-10T02:06:34;12.20;84.20
4757;DHT22;2392;52.578;13.426;2023-05-10T02:09:01;12.20;84.40
4757;DHT22;2392;52.578;13.426;2023-05-10T02:11:30;12.20;84.40
4757;DHT22;2392;52.578;13.426;2023-05-10T02:13:58;12.20;85.30
4757;DHT22;2392;52.578;13.426;2023-05-10T02:16:28;12.20;84.80
4757;DHT22;2392;52.578;13.426;2023-05-10T02:18:57;12.10;85.00
4757;DHT22;2392;52.578;13.426;2023-05-10T02:21:28;12.10;84.80
4757;DHT22;2392;52.578;13.426;2023-05-10T02:23:57;12.10;85.00
4757;DHT22;2392;52.578;13.426;2023-05-10T02:26:25;12.10;85.00
4757;DHT22;2392;52.578;13.426;2023-05-10T02:28:53;12.10;85.10
4757;DHT22;2392;52.578;13.426;2023-05-10T02:31:21;12.00;85.50
4757;DHT22;2392;52.578;13.426;2023-05-10T02:33:50;12.00;85.50
4757;DHT22;2392;52.578;13.426;2023-05-10T02:36:18;12.00;85.60
4757;DHT22;2392;52.578;13.426;2023-05-10T02:38:49;12.00;85.70
4757;DHT22;2392;52.578;13.426;2023-05-10T02:41:18;11.90;85.70
4757;DHT22;2392;52.578;13.426;2023-05-10T02:43:49;11.90;86.60
4757;DHT22;2392;52.578;13.426;2023-05-10T02:46:17;11.90;86.00
4757;DHT22;2392;52.578;13.426;2023-05-10T02:48:44;11.90;86.10
4757;DHT22;2392;52.578;13.426;2023-05-10T02:51:12;11.90;86.10
4757;DHT22;2392;52.578;13.426;2023-05-10T02:53:44;11.80;86.10
4757;DHT22;2392;52.578;13.426;2023-05-10T02:56:17;11.90;86.40
4757;DHT22;2392;52.578;13.426;2023-05-10T02:58:47;11.80;86.30
4757;DHT22;2392;52.578;13.426;2023-05-10T03:01:16;11.80;86.40
4757;DHT22;2392;52.578;13.426;2023-05-10T03:03:43;11.80;86.50
4757;DHT22;2392;52.578;13.426;2023-05-10T03:06:10;11.80;86.80
4757;DHT22;2392;52.578;13.426;2023-05-10T03:08:37;11.70;86.70
4757;DHT22;2392;52.578;13.426;2023-05-10T03:11:31;11.70;87.00
4757;DHT22;2392;52.578;13.426;2023-05-10T03:14:10;11.70;87.00
4757;DHT22;2392;52.578;13.426;2023-05-10T03:16:42;11.60;86.80
4757;DHT22;2392;52.578;13.426;2023-05-10T03:19:16;11.60;87.20
4757;DHT22;2392;52.578;13.426;2023-05-10T03:21:49;11.50;87.10
4757;DHT22;2392;52.578;13.426;2023-05-10T03:24:20;11.50;87.20
4757;DHT22;2392;52.578;13.426;2023-05-10T03:26:49;11.50;87.40
4757;DHT22;2392;52.578;13.426;2023-05-10T03:29:17;11.50;87.50
4757;DHT22;2392;52.578;13.426;2023-05-10T03:31:45;11.50;87.60
4757;DHT22;2392;52.578;13.426;2023-05-10T03:34:13;11.50;87.50
4757;DHT22;2392;52.578;13.426;2023-05-10T03:36:41;11.50;88.10
4757;DHT22;2392;52.578;13.426;2023-05-10T03:39:08;11.50;87.90
4757;DHT22;2392;52.578;13.426;2023-05-10T03:41:36;11.50;87.90
4757;DHT22;2392;52.578;13.426;2023-05-10T03:44:05;11.40;88.00
4757;DHT22;2392;52.578;13.426;2023-05-10T03:46:32;11.40;88.10
4757;DHT22;2392;52.578;13.426;2023-05-10T03:48:59;11.40;88.20
4757;DHT22;2392;52.578;13.426;2023-05-10T03:51:26;11.40;88.20
4757;DHT22;2392;52.578;13.426;2023-05-10T03:53:54;11.40;88.40
4757;DHT22;2392;52.578;13.426;2023-05-10T03:56:21;11.40;88.40
4757;DHT22;2392;52.578;13.426;2023-05-10T03:58:48;11.40;88.70
4757;DHT22;2392;52.578;13.426;2023-05-10T04:01:17;11.40;88.60
4757;DHT22;2392;52.578;13.426;2023-05-10T04:03:44;11.40;88.60
4757;DHT22;2392;52.578;13.426;2023-05-10T04:06:11;11.40;88.50
4757;DHT22;2392;52.578;13.426;2023-05-10T04:08:38;11.40;88.30
4757;DHT22;2392;52.578;13.426;2023-05-10T04:11:06;11.40;88.60
4757;DHT22;2392;52.578;13.426;2023-05-10T04:13:34;11.40;88.60
4757;DHT22;2392;52.578;13.426;2023-05-10T04:16:01;11.40;88.80
4757;DHT22;2392;52.578;13.426;2023-05-10T04:18:29;11.30;88.80
4757;DHT22;2392;52.578;13.426;2023-05-10T04:20:57;11.30;89.00
4757;DHT22;2392;52.578;13.426;2023-05-10T04:23:24;11.30;90.00
4757;DHT22;2392;52.578;13.426;2023-05-10T04:25:51;11.30;89.50
4757;DHT22;2392;52.578;13.426;2023-05-10T04:28:18;11.40;89.30
4757;DHT22;2392;52.578;13.426;2023-05-10T04:30:45;11.40;89.20
4757;DHT22;2392;52.578;13.426;2023-05-10T04:33:12;11.40;89.60
4757;DHT22;2392;52.578;13.426;2023-05-10T04:35:41;11.40;89.40
4757;DHT22;2392;52.578;13.426;2023-05-10T04:38:08;11.40;89.20
4757;DHT22;2392;52.578;13.426;2023-05-10T04:40:35;11.50;89.40
4757;DHT22;2392;52.578;13.426;2023-05-10T04:43:02;11.50;89.60
4757;DHT22;2392;52.578;13.426;2023-05-10T04:45:29;11.50;89.70
4757;DHT22;2392;52.578;13.426;2023-05-10T04:47:56;11.50;89.60
4757;DHT22;2392;52.578;13.426;2023-05-10T04:50:23;11.60;89.50
4757;DHT22;2392;52.578;13.426;2023-05-10T04:52:51;11.60;89.70
4757;DHT22;2392;52.578;13.426;2023-05-10T04:55:18;11.70;90.00
4757;DHT22;2392;52.578;13.426;2023-05-10T04:57:45;11.70;89.80
4757;DHT22;2392;52.578;13.426;2023-05-10T05:00:13;11.80;89.70
4757;DHT22;2392;52.578;13.426;2023-05-10T05:02:42;11.80;89.60
4757;DHT22;2392;52.578;13.426;2023-05-10T05:05:10;11.90;89.40
4757;DHT22;2392;52.578;13.426;2023-05-10T05:07:37;11.90;89.50
4757;DHT22;2392;52.578;13.426;2023-05-10T05:10:06;11.90;89.80
4757;DHT22;2392;52.578;13.426;2023-05-10T05:12:34;12.00;90.00
4757;DHT22;2392;52.578;13.426;2023-05-10T05:15:01;12.00;89.80
4757;DHT22;2392;52.578;13.426;2023-05-10T05:17:30;12.10;89.70
4757;DHT22;2392;52.578;13.426;2023-05-10T05:19:57;12.10;89.80
4757;DHT22;2392;52.578;13.426;2023-05-10T05:22:24;12.20;89.80
4757;DHT22;2392;52.578;13.426;2023-05-10T05:24:53;12.20;89.40
4757;DHT22;2392;52.578;13.426;2023-05-10T05:27:21;12.30;89.60
4757;DHT22;2392;52.578;13.426;2023-05-10T05:29:50;12.40;89.80
4757;DHT22;2392;52.578;13.426;2023-05-10T05:32:17;12.40;89.50
4757;DHT22;2392;52.578;13.426;2023-05-10T05:34:44;12.50;89.20
4757;DHT22;2392;52.578;13.426;2023-05-10T05:37:13;12.60;88.70
4757;DHT22;2392;52.578;13.426;2023-05-10T05:39:40;12.60;88.90
4757;DHT22;2392;52.578;13.426;2023-05-10T05:42:08;12.70;89.10
4757;DHT22;2392;52.578;13.426;2023-05-10T05:44:36;12.80;88.80
4757;DHT22;2392;52.578;13.426;2023-05-10T05:47:04;12.80;88.90
4757;DHT22;2392;52.578;13.426;2023-05-10T05:49:31;12.90;88.60
4757;DHT22;2392;52.578;13.426;2023-05-10T05:51:59;13.00;88.30
4757;DHT22;2392;52.578;13.426;2023-05-10T05:54:26;13.10;89.00
4757;DHT22;2392;52.578;13.426;2023-05-10T05:56:54;13.20;88.00
4757;DHT22;2392;52.578;13.426;2023-05-10T05:59:21;13.30;88.80
4757;DHT22;2392;52.578;13.426;2023-05-10T06:01:50;13.30;88.00
4757;DHT22;2392;52.578;13.426;2023-05-10T06:04:18;13.40;88.10
4757;DHT22;2392;52.578;13.426;2023-05-10T06:06:45;13.50;87.70
4757;DHT22;2392;52.578;13.426;2023-05-10T06:09:12;13.50;87.50
4757;DHT22;2392;52.578;13.426;2023-05-10T06:11:39;13.60;87.80
4757;DHT22;2392;52.578;13.426;2023-05-10T06:14:06;13.70;87.60
4757;DHT22;2392;52.578;13.426;2023-05-10T06:16:33;13.80;87.30
4757;DHT22;2392;52.578;13.426;2023-05-10T06:19:02;13.80;86.90
4757;DHT22;2392;52.578;13.426;2023-05-10T06:21:29;13.80;87.20
4757;DHT22;2392;52.578;13.426;2023-05-10T06:23:56;13.90;87.10
4757;DHT22;2392;52.578;13.426;2023-05-10T06:26:23;14.00;87.60
4757;DHT22;2392;52.578;13.426;2023-05-10T06:28:50;14.10;87.20
4757;DHT22;2392;52.578;13.426;2023-05-10T06:31:17;14.10;87.40
4757;DHT22;2392;52.578;13.426;2023-05-10T06:33:44;14.20;87.10
4757;DHT22;2392;52.578;13.426;2023-05-10T06:36:14;14.30;86.50
4757;DHT22;2392;52.578;13.426;2023-05-10T06:38:41;14.40;87.00
4757;DHT22;2392;52.578;13.426;2023-05-10T06:41:08;14.40;86.40
4757;DHT22;2392;52.578;13.426;2023-05-10T06:43:35;14.50;86.40
4757;DHT22;2392;52.578;13.426;2023-05-10T06:46:05;14.60;86.70
4757;DHT22;2392;52.578;13.426;2023-05-10T06:48:33;14.70;86.60
4757;DHT22;2392;52.578;13.426;2023-05-10T06:51:00;14.80;87.10
4757;DHT22;2392;52.578;13.426;2023-05-10T06:53:28;14.90;86.20
4757;DHT22;2392;52.578;13.426;2023-05-10T06:55:55;14.90;86.20
4757;DHT22;2392;52.578;13.426;2023-05-10T06:58:22;15.00;85.10
4757;DHT22;2392;52.578;13.426;2023-05-10T07:00:50;15.10;85.70
4757;DHT22;2392;52.578;13.426;2023-05-10T07:03:17;15.10;86.60
4757;DHT22;2392;52.578;13.426;2023-05-10T07:05:44;15.20;85.30
4757;DHT22;2392;52.578;13.426;2023-05-10T07:08:11;15.30;85.40
4757;DHT22;2392;52.578;13.426;2023-05-10T07:10:40;15.30;85.20
4757;DHT22;2392;52.578;13.426;2023-05-10T07:13:07;15.30;85.70
4757;DHT22;2392;52.578;13.426;2023-05-10T07:15:34;15.40;84.90
4757;DHT22;2392;52.578;13.426;2023-05-10T07:18:01;15.40;85.10
4757;DHT22;2392;52.578;13.426;2023-05-10T07:20:29;15.50;84.70
4757;DHT22;2392;52.578;13.426;2023-05-10T07:22:56;15.50;84.20
4757;DHT22;2392;52.578;13.426;2023-05-10T07:25:23;15.50;83.70
4757;DHT22;2392;52.578;13.426;2023-05-10T07:27:52;15.50;84.00
4757;DHT22;2392;52.578;13.426;2023-05-10T07:30:19;15.60;84.40
4757;DHT22;2392;52.578;13.426;2023-05-10T07:32:46;15.60;85.60
4757;DHT22;2392;52.578;13.426;2023-05-10T07:35:13;15.70;84.50
4757;DHT22;2392;52.578;13.426;2023-05-10T07:37:40;15.80;84.90
4757;DHT22;2392;52.578;13.426;2023-05-10T07:40:08;15.80;84.10
4757;DHT22;2392;52.578;13.426;2023-05-10T07:42:35;15.80;83.60
4757;DHT22;2392;52.578;13.426;2023-05-10T07:45:04;15.90;84.80
4757;DHT22;2392;52.578;13.426;2023-05-10T07:47:32;16.00;84.80
4757;DHT22;2392;52.578;13.426;2023-05-10T07:49:59;16.10;85.00
4757;DHT22;2392;52.578;13.426;2023-05-10T07:52:26;16.20;83.60
4757;DHT22;2392;52.578;13.426;2023-05-10T07:54:52;16.20;84.00
4757;DHT22;2392;52.578;13.426;2023-05-10T07:57:20;16.20;83.80
4757;DHT22;2392;52.578;13.426;2023-05-10T07:59:47;16.30;83.50
4757;DHT22;2392;52.578;13.426;2023-05-10T08:02:15;16.40;84.70
4757;DHT22;2392;52.578;13.426;2023-05-10T08:04:42;16.50;84.40
4757;DHT22;2392;52.578;13.426;2023-05-10T08:07:09;16.50;84.30
4757;DHT22;2392;52.578;13.426;2023-05-10T08:09:36;16.60;83.80
4757;DHT22;2392;52.578;13.426;2023-05-10T08:12:04;16.60;84.20
4757;DHT22;2392;52.578;13.426;2023-05-10T08:14:31;16.70;83.50
4757;DHT22;2392;52.578;13.426;2023-05-10T08:16:58;16.70;84.20
4757;DHT22;2392;52.578;13.426;2023-05-10T08:19:26;16.80;84.20
4757;DHT22;2392;52.578;13.426;2023-05-10T08:21:53;16.90;84.10
4757;DHT22;2392;52.578;13.426;2023-05-10T08:24:21;17.00;83.40
4757;DHT22;2392;52.578;13.426;2023-05-10T08:26:48;17.10;83.20
4757;DHT22;2392;52.578;13.426;2023-05-10T08:29:15;17.10;82.20
4757;DHT22;2392;52.578;13.426;2023-05-10T08:31:42;17.20;83.30
4757;DHT22;2392;52.578;13.426;2023-05-10T08:34:10;17.30;83.50
4757;DHT22;2392;52.578;13.426;2023-05-10T08:36:38;17.40;82.60
4757;DHT22;2392;52.578;13.426;2023-05-10T08:39:05;17.50;82.70
4757;DHT22;2392;52.578;13.426;2023-05-10T08:41:33;17.60;82.30
4757;DHT22;2392;52.578;13.426;2023-05-10T08:44:04;17.70;82.20
4757;DHT22;2392;52.578;13.426;2023-05-10T08:46:33;17.80;81.90
4757;DHT22;2392;52.578;13.426;2023-05-10T08:49:02;17.80;81.30
4757;DHT22;2392;52.578;13.426;2023-05-10T08:51:35;17.90;81.80
4757;DHT22;2392;52.578;13.426;2023-05-10T08:54:05;18.00;82.60
4757;DHT22;2392;52.578;13.426;2023-05-10T08:56:32;18.10;81.90
4757;DHT22;2392;52.578;13.426;2023-05-10T08:58:59;18.30;81.70
4757;DHT22;2392;52.578;13.426;2023-05-10T09:01:27;18.30;80.70
4757;DHT22;2392;52.578;13.426;2023-05-10T09:03:54;18.40;81.70
4757;DHT22;2392;52.578;13.426;2023-05-10T09:06:22;18.50;80.70
4757;DHT22;2392;52.578;13.426;2023-05-10T09:08:49;18.50;81.50
4757;DHT22;2392;52.578;13.426;2023-05-10T09:11:20;18.60;81.70
4757;DHT22;2392;52.578;13.426;2023-05-10T09:13:48;18.80;82.10
4757;DHT22;2392;52.578;13.426;2023-05-10T09:16:17;18.80;81.50
4757;DHT22;2392;52.578;13.426;2023-05-10T09:18:44;19.00;80.30
4757;DHT22;2392;52.578;13.426;2023-05-10T09:21:11;19.10;80.40
4757;DHT22;2392;52.578;13.426;2023-05-10T09:23:42;19.20;81.00
4757;DHT22;2392;52.578;13.426;2023-05-10T09:26:09;19.30;79.40
4757;DHT22;2392;52.578;13.426;2023-05-10T09:28:51;19.50;79.50
4757;DHT22;2392;52.578;13.426;2023-05-10T09:31:19;19.50;79.60
4757;DHT22;2392;52.578;13.426;2023-05-10T09:33:46;19.60;79.90
4757;DHT22;2392;52.578;13.426;2023-05-10T09:36:14;19.70;78.80
4757;DHT22;2392;52.578;13.426;2023-05-10T09:38:48;19.80;80.00
4757;DHT22;2392;52.578;13.426;2023-05-10T09:41:16;19.90;79.90
4757;DHT22;2392;52.578;13.426;2023-05-10T09:43:45;19.90;77.60
4757;DHT22;2392;52.578;13.426;2023-05-10T09:46:12;20.00;78.60
4757;DHT22;2392;52.578;13.426;2023-05-10T09:48:42;20.10;78.20
4757;DHT22;2392;52.578;13.426;2023-05-10T09:51:10;20.10;78.70
4757;DHT22;2392;52.578;13.426;2023-05-10T09:53:37;20.20;80.00
4757;DHT22;2392;52.578;13.426;2023-05-10T09:56:04;20.40;79.20
4757;DHT22;2392;52.578;13.426;2023-05-10T09:58:35;20.50;79.50
4757;DHT22;2392;52.578;13.426;2023-05-10T10:01:05;20.60;76.00
4757;DHT22;2392;52.578;13.426;2023-05-10T10:03:42;20.60;78.20
4757;DHT22;2392;52.578;13.426;2023-05-10T10:06:09;20.70;77.10
4757;DHT22;2392;52.578;13.426;2023-05-10T10:08:36;20.90;77.40
4757;DHT22;2392;52.578;13.426;2023-05-10T10:11:03;21.40;77.40
4757;DHT22;2392;52.578;13.426;2023-05-10T10:13:31;22.10;76.20
4757;DHT22;2392;52.578;13.426;2023-05-10T10:15:58;23.10;75.50
4757;DHT22;2392;52.578;13.426;2023-05-10T10:18:27;24.00;72.80
4757;DHT22;2392;52.578;13.426;2023-05-10T10:20:55;25.00;73.10
4757;DHT22;2392;52.578;13.426;2023-05-10T10:23:23;25.90;69.80
4757;DHT22;2392;52.578;13.426;2023-05-10T10:25:50;26.50;68.30
4757;DHT22;2392;52.578;13.426;2023-05-10T10:28:24;27.20;66.10
4757;DHT22;2392;52.578;13.426;2023-05-10T10:30:54;28.10;64.90
4757;DHT22;2392;52.578;13.426;2023-05-10T10:33:36;29.20;65.40
4757;DHT22;2392;52.578;13.426;2023-05-10T10:36:06;29.40;60.80
4757;DHT22;2392;52.578;13.426;2023-05-10T10:38:38;30.50;59.80
4757;DHT22;2392;52.578;13.426;2023-05-10T10:41:32;31.80;59.80
4757;DHT22;2392;52.578;13.426;2023-05-10T10:44:24;32.10;55.00
4757;DHT22;2392;52.578;13.426;2023-05-10T10:47:25;32.70;53.60
4757;DHT22;2392;52.578;13.426;2023-05-10T10:50:07;33.50;52.20
4757;DHT22;2392;52.578;13.426;2023-05-10T10:52:35;33.40;50.40
4757;DHT22;2392;52.578;13.426;2023-05-10T10:55:05;33.90;51.30
4757;DHT22;2392;52.578;13.426;2023-05-10T10:57:43;33.60;49.80
4757;DHT22;2392;52.578;13.426;2023-05-10T11:00:27;34.00;50.20
4757;DHT22;2392;52.578;13.426;2023-05-10T11:02:57;34.90;50.30
4757;DHT22;2392;52.578;13.426;2023-05-10T11:05:40;35.00;47.90
4757;DHT22;2392;52.578;13.426;2023-05-10T11:08:17;35.50;48.10
4757;DHT22;2392;52.578;13.426;2023-05-10T11:11:05;36.30;47.70
4757;DHT22;2392;52.578;13.426;2023-05-10T11:13:36;36.00;45.00
4757;DHT22;2392;52.578;13.426;2023-05-10T11:16:12;35.60;47.00
4757;DHT22;2392;52.578;13.426;2023-05-10T11:18:39;36.00;46.10
4757;DHT22;2392;52.578;13.426;2023-05-10T11:21:09;36.60;47.00
4757;DHT22;2392;52.578;13.426;2023-05-10T11:23:48;36.60;45.20
4757;DHT22;2392;52.578;13.426;2023-05-10T11:26:16;35.30;43.50
4757;DHT22;2392;52.578;13.426;2023-05-10T11:28:44;34.40;45.40
4757;DHT22;2392;52.578;13.426;2023-05-10T11:31:13;32.10;46.60
4757;DHT22;2392;52.578;13.426;2023-05-10T11:33:44;31.40;50.10
4757;DHT22;2392;52.578;13.426;2023-05-10T11:36:14;30.40;51.40
4757;DHT22;2392;52.578;13.426;2023-05-10T11:38:42;29.40;51.50
4757;DHT22;2392;52.578;13.426;2023-05-10T11:41:09;28.50;53.80
4757;DHT22;2392;52.578;13.426;2023-05-10T11:43:37;27.80;53.50
4757;DHT22;2392;52.578;13.426;2023-05-10T11:46:05;26.90;55.50
4757;DHT22;2392;52.578;13.426;2023-05-10T11:48:32;26.40;56.60
4757;DHT22;2392;52.578;13.426;2023-05-10T11:51:00;26.20;57.00
4757;DHT22;2392;52.578;13.426;2023-05-10T11:53:29;25.70;56.90
4757;DHT22;2392;52.578;13.426;2023-05-10T11:56:02;25.60;57.50
4757;DHT22;2392;52.578;13.426;2023-05-10T11:58:30;25.30;57.20
4757;DHT22;2392;52.578;13.426;2023-05-10T12:00:58;25.00;57.40
4757;DHT22;2392;52.578;13.426;2023-05-10T12:03:26;24.90;59.10
4757;DHT22;2392;52.578;13.426;2023-05-10T12:05:53;24.90;60.40
4757;DHT22;2392;52.578;13.426;2023-05-10T12:08:22;24.90;60.90
4757;DHT22;2392;52.578;13.426;2023-05-10T12:10:51;25.00;59.90
4757;DHT22;2392;52.578;13.426;2023-05-10T12:13:19;24.90;60.30
4757;DHT22;2392;52.578;13.426;2023-05-10T12:15:47;24.90;60.50
4757;DHT22;2392;52.578;13.426;2023-05-10T12:18:14;24.90;60.90
4757;DHT22;2392;52.578;13.426;2023-05-10T12:20:41;24.90;60.00
4757;DHT22;2392;52.578;13.426;2023-05-10T12:23:09;24.90;60.10
4757;DHT22;2392;52.578;13.426;2023-05-10T12:25:37;24.80;59.80
4757;DHT22;2392;52.578;13.426;2023-05-10T12:28:08;24.60;59.70
4757;DHT22;2392;52.578;13.426;2023-05-10T12:30:36;24.70;58.90
4757;DHT22;2392;52.578;13.426;2023-05-10T12:33:08;24.90;58.90
4757;DHT22;2392;52.578;13.426;2023-05-10T12:35:44;25.10;58.60
4757;DHT22;2392;52.578;13.426;2023-05-10T12:38:28;25.40;58.50
4757;DHT22;2392;52.578;13.426;2023-05-10T12:40:57;25.60;58.30
4757;DHT22;2392;52.578;13.426;2023-05-10T12:43:26;25.80;56.90
4757;DHT22;2392;52.578;13.426;2023-05-10T12:45:53;25.80;56.70
4757;DHT22;2392;52.578;13.426;2023-05-10T12:48:20;25.80;56.80
4757;DHT22;2392;52.578;13.426;2023-05-10T12:50:47;25.90;57.10
4757;DHT22;2392;52.578;13.426;2023-05-10T12:53:15;25.80;57.10
4757;DHT22;2392;52.578;13.426;2023-05-10T12:55:42;25.80;56.60
4757;DHT22;2392;52.578;13.426;2023-05-10T12:58:09;25.90;58.00
4757;DHT22;2392;52.578;13.426;2023-05-10T13:00:37;25.80;56.90
4757;DHT22;2392;52.578;13.426;2023-05-10T13:03:04;25.80;57.90
4757;DHT22;2392;52.578;13.426;2023-05-10T13:05:32;25.70;57.00
4757;DHT22;2392;52.578;13.426;2023-05-10T13:07:59;25.70;57.40
4757;DHT22;2392;52.578;13.426;2023-05-10T13:10:26;25.60;55.70
4757;DHT22;2392;52.578;13.426;2023-05-10T13:12:53;25.60;56.60
4757;DHT22;2392;52.578;13.426;2023-05-10T13:15:20;25.40;56.00
4757;DHT22;2392;52.578;13.426;2023-05-10T13:17:48;25.40;56.20
4757;DHT22;2392;52.578;13.426;2023-05-10T13:20:15;25.30;55.90
4757;DHT22;2392;52.578;13.426;2023-05-10T13:22:43;25.30;56.20
4757;DHT22;2392;52.578;13.426;2023-05-10T13:25:10;25.30;56.30
4757;DHT22;2392;52.578;13.426;2023-05-10T13:27:37;25.40;56.40
4757;DHT22;2392;52.578;13.426;2023-05-10T13:30:05;25.40;57.40
4757;DHT22;2392;52.578;13.426;2023-05-10T13:32:33;25.30;56.40
4757;DHT22;2392;52.578;13.426;2023-05-10T13:35:01;25.30;57.40
4757;DHT22;2392;52.578;13.426;2023-05-10T13:37:30;25.20;56.90
4757;DHT22;2392;52.578;13.426;2023-05-10T13:39:57;25.20;55.30
4757;DHT22;2392;52.578;13.426;2023-05-10T13:42:24;25.20;56.40
4757;DHT22;2392;52.578;13.426;2023-05-10T13:44:53;25.30;57.00
4757;DHT22;2392;52.578;13.426;2023-05-10T13:47:20;25.60;57.60
4757;DHT22;2392;52.578;13.426;2023-05-10T13:49:47;26.00;56.50
4757;DHT22;2392;52.578;13.426;2023-05-10T13:52:16;26.30;54.30
4757;DHT22;2392;52.578;13.426;2023-05-10T13:54:43;26.50;53.60
4757;DHT22;2392;52.578;13.426;2023-05-10T13:57:10;26.70;55.00
4757;DHT22;2392;52.578;13.426;2023-05-10T13:59:39;26.80;54.00
4757;DHT22;2392;52.578;13.426;2023-05-10T14:02:06;26.60;54.50
4757;DHT22;2392;52.578;13.426;2023-05-10T14:04:33;26.10;53.50
4757;DHT22;2392;52.578;13.426;2023-05-10T14:07:01;25.60;54.00
4757;DHT22;2392;52.578;13.426;2023-05-10T14:09:29;25.50;55.80
4757;DHT22;2392;52.578;13.426;2023-05-10T14:11:56;25.20;56.00
4757;DHT22;2392;52.578;13.426;2023-05-10T14:14:24;25.20;56.30
4757;DHT22;2392;52.578;13.426;2023-05-10T14:16:51;25.20;56.30
4757;DHT22;2392;52.578;13.426;2023-05-10T14:19:18;25.40;55.60
4757;DHT22;2392;52.578;13.426;2023-05-10T14:21:45;25.60;56.40
4757;DHT22;2392;52.578;13.426;2023-05-10T14:24:12;25.80;55.90
4757;DHT22;2392;52.578;13.426;2023-05-10T14:26:40;25.80;54.90
4757;DHT22;2392;52.578;13.426;2023-05-10T14:29:07;25.80;54.40
4757;DHT22;2392;52.578;13.426;2023-05-10T14:31:34;25.60;54.50
4757;DHT22;2392;52.578;13.426;2023-05-10T14:34:01;25.60;55.10
4757;DHT22;2392;52.578;13.426;2023-05-10T14:36:28;25.40;54.30
4757;DHT22;2392;52.578;13.426;2023-05-10T14:38:55;25.30;55.30
4757;DHT22;2392;52.578;13.426;2023-05-10T14:41:22;25.30;56.10
4757;DHT22;2392;52.578;13.426;2023-05-10T14:43:51;25.50;56.00
4757;DHT22;2392;52.578;13.426;2023-05-10T14:46:18;25.90;56.60
4757;DHT22;2392;52.578;13.426;2023-05-10T14:48:45;26.10;55.60
4757;DHT22;2392;52.578;13.426;2023-05-10T14:51:12;26.30;54.30
4757;DHT22;2392;52.578;13.426;2023-05-10T14:53:40;26.70;53.40
4757;DHT22;2392;52.578;13.426;2023-05-10T14:56:07;26.90;53.60
4757;DHT22;2392;52.578;13.426;2023-05-10T14:58:34;27.00;52.00
4757;DHT22;2392;52.578;13.426;2023-05-10T15:01:02;27.00;52.00
4757;DHT22;2392;52.578;13.426;2023-05-10T15:03:29;27.00;51.60
4757;DHT22;2392;52.578;13.426;2023-05-10T15:05:56;27.10;52.20
4757;DHT22;2392;52.578;13.426;2023-05-10T15:08:24;27.10;53.80
4757;DHT22;2392;52.578;13.426;2023-05-10T15:10:51;27.10;53.30
4757;DHT22;2392;52.578;13.426;2023-05-10T15:13:21;27.00;53.60
4757;DHT22;2392;52.578;13.426;2023-05-10T15:15:47;26.70;53.30
4757;DHT22;2392;52.578;13.426;2023-05-10T15:18:16;26.60;54.30
4757;DHT22;2392;52.578;13.426;2023-05-10T15:20:43;26.40;53.80
4757;DHT22;2392;52.578;13.426;2023-05-10T15:23:10;26.10;53.10
4757;DHT22;2392;52.578;13.426;2023-05-10T15:25:37;26.00;53.90
4757;DHT22;2392;52.578;13.426;2023-05-10T15:28:05;25.60;53.20
4757;DHT22;2392;52.578;13.426;2023-05-10T15:30:32;25.50;54.60
4757;DHT22;2392;52.578;13.426;2023-05-10T15:33:00;25.40;55.10
4757;DHT22;2392;52.578;13.426;2023-05-10T15:35:28;25.20;55.30
4757;DHT22;2392;52.578;13.426;2023-05-10T15:37:55;25.10;55.50
4757;DHT22;2392;52.578;13.426;2023-05-10T15:40:22;25.10;54.70
4757;DHT22;2392;52.578;13.426;2023-05-10T15:42:49;25.00;54.30
4757;DHT22;2392;52.578;13.426;2023-05-10T15:45:16;25.00;54.70
4757;DHT22;2392;52.578;13.426;2023-05-10T15:47:43;25.00;55.00
4757;DHT22;2392;52.578;13.426;2023-05-10T15:50:11;24.80;54.20
4757;DHT22;2392;52.578;13.426;2023-05-10T15:52:39;24.70;54.60
4757;DHT22;2392;52.578;13.426;2023-05-10T15:55:07;24.70;55.10
4757;DHT22;2392;52.578;13.426;2023-05-10T15:57:37;24.70;55.00
4757;DHT22;2392;52.578;13.426;2023-05-10T16:00:06;24.70;55.90